sensor_id;sensor_type;location;lat;lon;timestamp;P1;durP1;ratioP1;P2;durP2;ratioP2
58665;SDS011;44436;52.872;6.520;2022-08-19T00:01:50;6.35;;;4.90;;
58665;SDS011;44436;52.872;6.520;2022-08-19T00:04:17;7.03;;;5.22;;
58665;SDS011;44436;52.872;6.520;2022-08-19T00:06:45;8.50;;;4.70;;
58665;SDS011;44436;52.872;6.520;2022-08-19T00:09:13;8.23;;;5.45;;
58665;SDS011;44436;52.872;6.520;2022-08-19T00:11:41;11.20;;;5.70;;
58665;SDS011;44436;52.872;6.520;2022-08-19T00:14:09;9.43;;;5.57;;
58665;SDS011;44436;52.872;6.520;2022-08-19T00:16:38;8.88;;;5.90;;
58665;SDS011;44436;52.872;6.520;2022-08-19T00:19:06;6.25;;;5.25;;
58665;SDS011;44436;52.872;6.520;2022-08-19T00:21:32;8.00;;;5.88;;
58665;SDS011;44436;52.872;6.520;2022-08-19T00:24:03;9.10;;;5.70;;
58665;SDS011;44436;52.872;6.520;2022-08-19T00:26:29;7.75;;;5.30;;
58665;SDS011;44436;52.872;6.520;2022-08-19T00:28:55;8.90;;;6.00;;
58665;SDS011;44436;52.872;6.520;2022-08-19T00:31:21;9.90;;;6.18;;
58665;SDS011;44436;52.872;6.520;2022-08-19T00:33:47;8.65;;;6.93;;
58665;SDS011;44436;52.872;6.520;2022-08-19T00:36:15;9.93;;;6.15;;
58665;SDS011;44436;52.872;6.520;2022-08-19T00:38:41;7.97;;;6.97;;
58665;SDS011;44436;52.872;6.520;2022-08-19T00:41:08;8.05;;;6.53;;
58665;SDS011;44436;52.872;6.520;2022-08-19T00:44:07;8.93;;;6.68;;
58665;SDS011;44436;52.872;6.520;2022-08-19T00:46:36;9.02;;;6.32;;
58665;SDS011;44436;52.872;6.520;2022-08-19T00:49:05;14.27;;;6.55;;
58665;SDS011;44436;52.872;6.520;2022-08-19T00:51:40;9.98;;;7.53;;
58665;SDS011;44436;52.872;6.520;2022-08-19T00:54:07;22.85;;;7.10;;
58665;SDS011;44436;52.872;6.520;2022-08-19T00:56:34;8.38;;;6.30;;
58665;SDS011;44436;52.872;6.520;2022-08-19T00:59:01;11.10;;;7.30;;
58665;SDS011;44436;52.872;6.520;2022-08-19T01:01:33;8.15;;;6.20;;
58665;SDS011;44436;52.872;6.520;2022-08-19T01:03:59;7.82;;;6.22;;
58665;SDS011;44436;52.872;6.520;2022-08-19T01:06:25;9.50;;;7.05;;
58665;SDS011;44436;52.872;6.520;2022-08-19T01:08:51;8.98;;;6.53;;
58665;SDS011;44436;52.872;6.520;2022-08-19T01:11:18;8.25;;;6.13;;
58665;SDS011;44436;52.872;6.520;2022-08-19T01:13:44;9.35;;;7.28;;
58665;SDS011;44436;52.872;6.520;2022-08-19T01:16:11;11.27;;;7.53;;
58665;SDS011;44436;52.872;6.520;2022-08-19T01:18:39;9.68;;;7.57;;
58665;SDS011;44436;52.872;6.520;2022-08-19T01:21:16;8.63;;;7.65;;
58665;SDS011;44436;52.872;6.520;2022-08-19T01:23:43;8.32;;;7.43;;
58665;SDS011;44436;52.872;6.520;2022-08-19T01:26:12;8.95;;;7.40;;
58665;SDS011;44436;52.872;6.520;2022-08-19T01:28:44;8.25;;;7.30;;
58665;SDS011;44436;52.872;6.520;2022-08-19T01:31:13;9.90;;;7.45;;
58665;SDS011;44436;52.872;6.520;2022-08-19T01:33:41;10.05;;;7.70;;
58665;SDS011;44436;52.872;6.520;2022-08-19T01:36:08;8.98;;;7.47;;
58665;SDS011;44436;52.872;6.520;2022-08-19T01:38:47;9.40;;;7.18;;
58665;SDS011;44436;52.872;6.520;2022-08-19T01:41:14;9.55;;;7.25;;
58665;SDS011;44436;52.872;6.520;2022-08-19T01:43:41;8.77;;;6.75;;
58665;SDS011;44436;52.872;6.520;2022-08-19T01:46:07;9.43;;;7.93;;
58665;SDS011;44436;52.872;6.520;2022-08-19T01:48:37;9.55;;;7.78;;
58665;SDS011;44436;52.872;6.520;2022-08-19T01:51:04;8.75;;;7.10;;
58665;SDS011;44436;52.872;6.520;2022-08-19T01:53:31;9.70;;;8.00;;
58665;SDS011;44436;52.872;6.520;2022-08-19T01:55:57;9.82;;;7.80;;
58665;SDS011;44436;52.872;6.520;2022-08-19T01:58:24;9.82;;;8.05;;
58665;SDS011;44436;52.872;6.520;2022-08-19T02:00:56;10.77;;;7.57;;
58665;SDS011;44436;52.872;6.520;2022-08-19T02:03:22;9.82;;;8.02;;
58665;SDS011;44436;52.872;6.520;2022-08-19T02:05:53;8.82;;;7.05;;
58665;SDS011;44436;52.872;6.520;2022-08-19T02:08:20;10.38;;;7.53;;
58665;SDS011;44436;52.872;6.520;2022-08-19T02:10:46;10.32;;;7.75;;
58665;SDS011;44436;52.872;6.520;2022-08-19T02:13:13;9.65;;;7.35;;
58665;SDS011;44436;52.872;6.520;2022-08-19T02:15:39;9.07;;;7.60;;
58665;SDS011;44436;52.872;6.520;2022-08-19T02:18:05;8.15;;;7.35;;
58665;SDS011;44436;52.872;6.520;2022-08-19T02:20:33;10.70;;;7.50;;
58665;SDS011;44436;52.872;6.520;2022-08-19T02:22:59;10.93;;;7.65;;
58665;SDS011;44436;52.872;6.520;2022-08-19T02:25:26;10.55;;;7.60;;
58665;SDS011;44436;52.872;6.520;2022-08-19T02:27:52;7.78;;;6.95;;
58665;SDS011;44436;52.872;6.520;2022-08-19T02:30:19;12.73;;;7.80;;
58665;SDS011;44436;52.872;6.520;2022-08-19T02:32:45;9.13;;;7.25;;
58665;SDS011;44436;52.872;6.520;2022-08-19T02:35:12;8.90;;;7.25;;
58665;SDS011;44436;52.872;6.520;2022-08-19T02:37:38;9.30;;;7.82;;
58665;SDS011;44436;52.872;6.520;2022-08-19T02:40:23;9.00;;;7.78;;
58665;SDS011;44436;52.872;6.520;2022-08-19T02:42:48;9.73;;;7.63;;
58665;SDS011;44436;52.872;6.520;2022-08-19T02:45:14;7.25;;;6.55;;
58665;SDS011;44436;52.872;6.520;2022-08-19T02:47:40;12.02;;;7.50;;
58665;SDS011;44436;52.872;6.520;2022-08-19T02:50:06;7.53;;;6.80;;
58665;SDS011;44436;52.872;6.520;2022-08-19T02:52:32;8.73;;;7.30;;
58665;SDS011;44436;52.872;6.520;2022-08-19T02:54:59;9.32;;;7.40;;
58665;SDS011;44436;52.872;6.520;2022-08-19T02:57:25;10.57;;;7.65;;
58665;SDS011;44436;52.872;6.520;2022-08-19T02:59:52;7.53;;;6.60;;
58665;SDS011;44436;52.872;6.520;2022-08-19T03:02:18;8.10;;;7.30;;
58665;SDS011;44436;52.872;6.520;2022-08-19T03:04:44;28.17;;;8.05;;
58665;SDS011;44436;52.872;6.520;2022-08-19T03:07:12;8.57;;;7.75;;
58665;SDS011;44436;52.872;6.520;2022-08-19T03:09:39;10.40;;;7.95;;
58665;SDS011;44436;52.872;6.520;2022-08-19T03:12:05;12.18;;;8.10;;
58665;SDS011;44436;52.872;6.520;2022-08-19T03:14:31;10.75;;;7.85;;
58665;SDS011;44436;52.872;6.520;2022-08-19T03:16:58;12.23;;;7.43;;
58665;SDS011;44436;52.872;6.520;2022-08-19T03:19:24;9.90;;;7.80;;
58665;SDS011;44436;52.872;6.520;2022-08-19T03:21:50;8.40;;;7.53;;
58665;SDS011;44436;52.872;6.520;2022-08-19T03:24:16;10.23;;;8.02;;
58665;SDS011;44436;52.872;6.520;2022-08-19T03:26:44;10.00;;;8.75;;
58665;SDS011;44436;52.872;6.520;2022-08-19T03:29:15;10.23;;;7.95;;
58665;SDS011;44436;52.872;6.520;2022-08-19T03:31:42;9.85;;;7.82;;
58665;SDS011;44436;52.872;6.520;2022-08-19T03:34:17;11.13;;;8.85;;
58665;SDS011;44436;52.872;6.520;2022-08-19T03:36:47;9.95;;;8.60;;
58665;SDS011;44436;52.872;6.520;2022-08-19T03:39:13;11.00;;;8.25;;
58665;SDS011;44436;52.872;6.520;2022-08-19T03:41:41;10.43;;;8.32;;
58665;SDS011;44436;52.872;6.520;2022-08-19T03:44:08;10.07;;;7.88;;
58665;SDS011;44436;52.872;6.520;2022-08-19T03:46:35;8.90;;;8.00;;
58665;SDS011;44436;52.872;6.520;2022-08-19T03:49:02;11.30;;;8.38;;
58665;SDS011;44436;52.872;6.520;2022-08-19T03:51:36;11.32;;;8.95;;
58665;SDS011;44436;52.872;6.520;2022-08-19T03:54:03;10.63;;;8.82;;
58665;SDS011;44436;52.872;6.520;2022-08-19T03:56:36;12.60;;;9.25;;
58665;SDS011;44436;52.872;6.520;2022-08-19T03:59:04;9.50;;;8.45;;
58665;SDS011;44436;52.872;6.520;2022-08-19T04:01:32;9.27;;;8.25;;
58665;SDS011;44436;52.872;6.520;2022-08-19T04:03:58;11.05;;;9.00;;
58665;SDS011;44436;52.872;6.520;2022-08-19T04:06:25;11.63;;;8.63;;
58665;SDS011;44436;52.872;6.520;2022-08-19T04:08:54;10.75;;;8.77;;
58665;SDS011;44436;52.872;6.520;2022-08-19T04:11:22;12.40;;;9.13;;
58665;SDS011;44436;52.872;6.520;2022-08-19T04:13:49;9.25;;;8.30;;
58665;SDS011;44436;52.872;6.520;2022-08-19T04:16:17;12.63;;;8.82;;
58665;SDS011;44436;52.872;6.520;2022-08-19T04:18:46;11.88;;;8.30;;
58665;SDS011;44436;52.872;6.520;2022-08-19T04:21:17;10.25;;;8.25;;
58665;SDS011;44436;52.872;6.520;2022-08-19T04:23:46;13.77;;;8.45;;
58665;SDS011;44436;52.872;6.520;2022-08-19T04:26:17;11.45;;;9.45;;
58665;SDS011;44436;52.872;6.520;2022-08-19T04:28:46;11.55;;;9.40;;
58665;SDS011;44436;52.872;6.520;2022-08-19T04:31:17;12.25;;;9.23;;
58665;SDS011;44436;52.872;6.520;2022-08-19T04:33:44;13.60;;;9.90;;
58665;SDS011;44436;52.872;6.520;2022-08-19T04:36:15;11.35;;;9.55;;
58665;SDS011;44436;52.872;6.520;2022-08-19T04:38:46;10.30;;;9.18;;
58665;SDS011;44436;52.872;6.520;2022-08-19T04:41:12;11.48;;;9.43;;
58665;SDS011;44436;52.872;6.520;2022-08-19T04:43:57;13.13;;;10.02;;
58665;SDS011;44436;52.872;6.520;2022-08-19T04:46:22;11.85;;;9.68;;
58665;SDS011;44436;52.872;6.520;2022-08-19T04:48:48;13.43;;;9.40;;
58665;SDS011;44436;52.872;6.520;2022-08-19T04:51:14;12.00;;;8.93;;
58665;SDS011;44436;52.872;6.520;2022-08-19T04:53:40;10.40;;;8.48;;
58665;SDS011;44436;52.872;6.520;2022-08-19T04:56:08;9.90;;;8.18;;
58665;SDS011;44436;52.872;6.520;2022-08-19T04:58:38;12.18;;;8.45;;
58665;SDS011;44436;52.872;6.520;2022-08-19T05:01:07;11.05;;;8.40;;
58665;SDS011;44436;52.872;6.520;2022-08-19T05:03:35;13.20;;;9.15;;
58665;SDS011;44436;52.872;6.520;2022-08-19T05:06:08;11.07;;;8.40;;
58665;SDS011;44436;52.872;6.520;2022-08-19T05:08:36;10.10;;;8.55;;
58665;SDS011;44436;52.872;6.520;2022-08-19T05:11:11;9.90;;;8.90;;
58665;SDS011;44436;52.872;6.520;2022-08-19T05:13:39;11.13;;;8.65;;
58665;SDS011;44436;52.872;6.520;2022-08-19T05:16:05;11.88;;;8.07;;
58665;SDS011;44436;52.872;6.520;2022-08-19T05:18:31;12.75;;;8.80;;
58665;SDS011;44436;52.872;6.520;2022-08-19T05:21:17;12.40;;;8.35;;
58665;SDS011;44436;52.872;6.520;2022-08-19T05:24:03;10.32;;;8.80;;
58665;SDS011;44436;52.872;6.520;2022-08-19T05:26:33;10.00;;;8.02;;
58665;SDS011;44436;52.872;6.520;2022-08-19T05:28:59;9.75;;;8.18;;
58665;SDS011;44436;52.872;6.520;2022-08-19T05:31:25;11.73;;;8.65;;
58665;SDS011;44436;52.872;6.520;2022-08-19T05:33:50;11.90;;;8.93;;
58665;SDS011;44436;52.872;6.520;2022-08-19T05:36:16;10.57;;;9.48;;
58665;SDS011;44436;52.872;6.520;2022-08-19T05:38:43;13.07;;;9.52;;
58665;SDS011;44436;52.872;6.520;2022-08-19T05:41:09;11.63;;;9.52;;
58665;SDS011;44436;52.872;6.520;2022-08-19T05:43:36;15.05;;;10.77;;
58665;SDS011;44436;52.872;6.520;2022-08-19T05:46:02;18.02;;;12.38;;
58665;SDS011;44436;52.872;6.520;2022-08-19T05:48:31;15.50;;;12.40;;
58665;SDS011;44436;52.872;6.520;2022-08-19T05:50:58;17.40;;;14.48;;
58665;SDS011;44436;52.872;6.520;2022-08-19T05:53:31;20.65;;;15.85;;
58665;SDS011;44436;52.872;6.520;2022-08-19T05:55:57;24.05;;;16.45;;
58665;SDS011;44436;52.872;6.520;2022-08-19T05:58:23;21.25;;;16.45;;
58665;SDS011;44436;52.872;6.520;2022-08-19T06:00:49;24.23;;;16.95;;
58665;SDS011;44436;52.872;6.520;2022-08-19T06:03:16;25.02;;;16.35;;
58665;SDS011;44436;52.872;6.520;2022-08-19T06:05:42;22.10;;;15.88;;
58665;SDS011;44436;52.872;6.520;2022-08-19T06:08:07;20.63;;;17.17;;
58665;SDS011;44436;52.872;6.520;2022-08-19T06:10:33;24.02;;;17.85;;
58665;SDS011;44436;52.872;6.520;2022-08-19T06:12:59;21.92;;;17.23;;
58665;SDS011;44436;52.872;6.520;2022-08-19T06:15:24;23.80;;;17.33;;
58665;SDS011;44436;52.872;6.520;2022-08-19T06:17:52;25.55;;;17.33;;
58665;SDS011;44436;52.872;6.520;2022-08-19T06:20:18;25.52;;;17.30;;
58665;SDS011;44436;52.872;6.520;2022-08-19T06:22:46;22.90;;;17.60;;
58665;SDS011;44436;52.872;6.520;2022-08-19T06:25:16;27.67;;;16.98;;
58665;SDS011;44436;52.872;6.520;2022-08-19T06:27:43;24.48;;;17.80;;
58665;SDS011;44436;52.872;6.520;2022-08-19T06:30:09;22.48;;;16.45;;
58665;SDS011;44436;52.872;6.520;2022-08-19T06:32:37;23.60;;;16.90;;
58665;SDS011;44436;52.872;6.520;2022-08-19T06:35:03;23.52;;;17.00;;
58665;SDS011;44436;52.872;6.520;2022-08-19T06:37:29;24.13;;;17.05;;
58665;SDS011;44436;52.872;6.520;2022-08-19T06:39:55;21.52;;;16.73;;
58665;SDS011;44436;52.872;6.520;2022-08-19T06:42:21;25.48;;;17.13;;
58665;SDS011;44436;52.872;6.520;2022-08-19T06:44:47;24.30;;;15.95;;
58665;SDS011;44436;52.872;6.520;2022-08-19T06:47:15;20.75;;;16.85;;
58665;SDS011;44436;52.872;6.520;2022-08-19T06:49:44;20.80;;;15.57;;
58665;SDS011;44436;52.872;6.520;2022-08-19T06:52:12;23.00;;;16.00;;
58665;SDS011;44436;52.872;6.520;2022-08-19T06:54:39;20.02;;;16.67;;
58665;SDS011;44436;52.872;6.520;2022-08-19T06:57:06;20.35;;;15.30;;
58665;SDS011;44436;52.872;6.520;2022-08-19T06:59:34;25.48;;;15.32;;
58665;SDS011;44436;52.872;6.520;2022-08-19T07:02:02;21.17;;;15.35;;
58665;SDS011;44436;52.872;6.520;2022-08-19T07:04:33;19.40;;;15.20;;
58665;SDS011;44436;52.872;6.520;2022-08-19T07:07:08;20.30;;;14.40;;
58665;SDS011;44436;52.872;6.520;2022-08-19T07:09:37;17.63;;;14.05;;
58665;SDS011;44436;52.872;6.520;2022-08-19T07:12:05;17.80;;;13.57;;
58665;SDS011;44436;52.872;6.520;2022-08-19T07:14:33;20.25;;;13.98;;
58665;SDS011;44436;52.872;6.520;2022-08-19T07:17:03;18.35;;;14.55;;
58665;SDS011;44436;52.872;6.520;2022-08-19T07:19:31;16.95;;;14.15;;
58665;SDS011;44436;52.872;6.520;2022-08-19T07:21:57;20.95;;;14.30;;
58665;SDS011;44436;52.872;6.520;2022-08-19T07:24:27;19.00;;;14.85;;
58665;SDS011;44436;52.872;6.520;2022-08-19T07:26:54;18.42;;;13.52;;
58665;SDS011;44436;52.872;6.520;2022-08-19T07:29:22;19.10;;;13.68;;
58665;SDS011;44436;52.872;6.520;2022-08-19T07:31:49;19.58;;;13.82;;
58665;SDS011;44436;52.872;6.520;2022-08-19T07:34:15;19.88;;;13.68;;
58665;SDS011;44436;52.872;6.520;2022-08-19T07:36:42;16.58;;;13.32;;
58665;SDS011;44436;52.872;6.520;2022-08-19T07:39:12;15.70;;;12.70;;
58665;SDS011;44436;52.872;6.520;2022-08-19T07:44:07;17.48;;;13.60;;
58665;SDS011;44436;52.872;6.520;2022-08-19T07:46:35;18.85;;;12.60;;
58665;SDS011;44436;52.872;6.520;2022-08-19T07:49:04;15.40;;;12.82;;
58665;SDS011;44436;52.872;6.520;2022-08-19T07:51:32;14.43;;;12.18;;
58665;SDS011;44436;52.872;6.520;2022-08-19T07:53:57;15.00;;;11.30;;
58665;SDS011;44436;52.872;6.520;2022-08-19T07:56:23;13.55;;;11.55;;
58665;SDS011;44436;52.872;6.520;2022-08-19T07:58:50;15.75;;;10.18;;
58665;SDS011;44436;52.872;6.520;2022-08-19T08:01:22;18.63;;;10.82;;
58665;SDS011;44436;52.872;6.520;2022-08-19T08:03:51;12.40;;;9.95;;
58665;SDS011;44436;52.872;6.520;2022-08-19T08:06:36;13.07;;;7.72;;
58665;SDS011;44436;52.872;6.520;2022-08-19T08:09:23;12.75;;;8.43;;
58665;SDS011;44436;52.872;6.520;2022-08-19T08:11:59;13.90;;;9.27;;
58665;SDS011;44436;52.872;6.520;2022-08-19T08:14:39;10.50;;;8.88;;
58665;SDS011;44436;52.872;6.520;2022-08-19T08:17:09;10.18;;;8.13;;
58665;SDS011;44436;52.872;6.520;2022-08-19T08:19:36;12.52;;;10.38;;
58665;SDS011;44436;52.872;6.520;2022-08-19T08:22:02;14.68;;;9.80;;
58665;SDS011;44436;52.872;6.520;2022-08-19T08:24:30;14.63;;;9.07;;
58665;SDS011;44436;52.872;6.520;2022-08-19T08:26:57;13.57;;;10.15;;
58665;SDS011;44436;52.872;6.520;2022-08-19T08:29:25;13.10;;;10.52;;
58665;SDS011;44436;52.872;6.520;2022-08-19T08:31:53;12.48;;;11.07;;
58665;SDS011;44436;52.872;6.520;2022-08-19T08:34:19;16.13;;;12.25;;
58665;SDS011;44436;52.872;6.520;2022-08-19T08:36:46;17.25;;;13.63;;
58665;SDS011;44436;52.872;6.520;2022-08-19T08:39:13;20.85;;;14.52;;
58665;SDS011;44436;52.872;6.520;2022-08-19T08:44:28;19.02;;;14.38;;
58665;SDS011;44436;52.872;6.520;2022-08-19T08:47:05;20.17;;;14.93;;
58665;SDS011;44436;52.872;6.520;2022-08-19T08:49:42;19.33;;;15.45;;
58665;SDS011;44436;52.872;6.520;2022-08-19T08:52:34;17.73;;;13.82;;
58665;SDS011;44436;52.872;6.520;2022-08-19T08:55:09;17.80;;;14.65;;
58665;SDS011;44436;52.872;6.520;2022-08-19T08:57:39;18.63;;;14.15;;
58665;SDS011;44436;52.872;6.520;2022-08-19T09:00:36;18.05;;;14.48;;
58665;SDS011;44436;52.872;6.520;2022-08-19T09:03:06;20.30;;;15.23;;
58665;SDS011;44436;52.872;6.520;2022-08-19T09:05:49;22.63;;;18.13;;
58665;SDS011;44436;52.872;6.520;2022-08-19T09:08:28;18.02;;;15.63;;
58665;SDS011;44436;52.872;6.520;2022-08-19T09:11:15;21.23;;;16.63;;
58665;SDS011;44436;52.872;6.520;2022-08-19T09:14:02;21.20;;;16.67;;
58665;SDS011;44436;52.872;6.520;2022-08-19T09:16:39;16.55;;;14.68;;
58665;SDS011;44436;52.872;6.520;2022-08-19T09:19:06;14.15;;;12.15;;
58665;SDS011;44436;52.872;6.520;2022-08-19T09:21:33;15.95;;;12.05;;
58665;SDS011;44436;52.872;6.520;2022-08-19T09:24:00;16.40;;;11.30;;
58665;SDS011;44436;52.872;6.520;2022-08-19T09:26:27;13.18;;;10.50;;
58665;SDS011;44436;52.872;6.520;2022-08-19T09:28:52;15.93;;;12.52;;
58665;SDS011;44436;52.872;6.520;2022-08-19T09:31:21;12.80;;;11.32;;
58665;SDS011;44436;52.872;6.520;2022-08-19T09:33:48;11.75;;;10.45;;
58665;SDS011;44436;52.872;6.520;2022-08-19T09:36:15;17.30;;;11.55;;
58665;SDS011;44436;52.872;6.520;2022-08-19T09:38:44;12.50;;;10.40;;
58665;SDS011;44436;52.872;6.520;2022-08-19T09:41:11;15.35;;;11.93;;
58665;SDS011;44436;52.872;6.520;2022-08-19T09:43:42;14.30;;;12.82;;
58665;SDS011;44436;52.872;6.520;2022-08-19T09:46:10;15.82;;;12.25;;
58665;SDS011;44436;52.872;6.520;2022-08-19T09:48:37;16.42;;;13.65;;
58665;SDS011;44436;52.872;6.520;2022-08-19T09:51:04;20.38;;;15.00;;
58665;SDS011;44436;52.872;6.520;2022-08-19T09:53:33;15.60;;;13.90;;
58665;SDS011;44436;52.872;6.520;2022-08-19T09:55:59;17.42;;;14.32;;
58665;SDS011;44436;52.872;6.520;2022-08-19T09:58:25;14.60;;;13.10;;
58665;SDS011;44436;52.872;6.520;2022-08-19T10:00:53;17.05;;;13.27;;
58665;SDS011;44436;52.872;6.520;2022-08-19T10:03:20;15.55;;;13.40;;
58665;SDS011;44436;52.872;6.520;2022-08-19T10:05:46;15.20;;;13.13;;
58665;SDS011;44436;52.872;6.520;2022-08-19T10:08:15;15.13;;;12.73;;
58665;SDS011;44436;52.872;6.520;2022-08-19T10:10:43;15.43;;;12.07;;
58665;SDS011;44436;52.872;6.520;2022-08-19T10:13:10;16.63;;;14.13;;
58665;SDS011;44436;52.872;6.520;2022-08-19T10:15:36;13.32;;;11.93;;
58665;SDS011;44436;52.872;6.520;2022-08-19T10:18:04;14.73;;;13.10;;
58665;SDS011;44436;52.872;6.520;2022-08-19T10:20:30;17.63;;;15.73;;
58665;SDS011;44436;52.872;6.520;2022-08-19T10:22:56;14.73;;;13.10;;
58665;SDS011;44436;52.872;6.520;2022-08-19T10:25:24;14.13;;;11.70;;
58665;SDS011;44436;52.872;6.520;2022-08-19T10:27:51;11.93;;;10.40;;
58665;SDS011;44436;52.872;6.520;2022-08-19T10:30:17;12.90;;;9.98;;
58665;SDS011;44436;52.872;6.520;2022-08-19T10:32:43;12.98;;;9.93;;
58665;SDS011;44436;52.872;6.520;2022-08-19T10:35:11;13.10;;;11.68;;
58665;SDS011;44436;52.872;6.520;2022-08-19T10:37:37;13.88;;;10.65;;
58665;SDS011;44436;52.872;6.520;2022-08-19T10:40:07;12.70;;;10.13;;
58665;SDS011;44436;52.872;6.520;2022-08-19T10:42:35;12.63;;;9.43;;
58665;SDS011;44436;52.872;6.520;2022-08-19T10:45:02;8.60;;;7.70;;
58665;SDS011;44436;52.872;6.520;2022-08-19T10:47:31;13.18;;;10.18;;
58665;SDS011;44436;52.872;6.520;2022-08-19T10:49:57;14.48;;;8.82;;
58665;SDS011;44436;52.872;6.520;2022-08-19T10:52:42;9.80;;;8.63;;
58665;SDS011;44436;52.872;6.520;2022-08-19T10:55:10;12.07;;;9.77;;
58665;SDS011;44436;52.872;6.520;2022-08-19T10:57:54;8.38;;;7.13;;
58665;SDS011;44436;52.872;6.520;2022-08-19T11:00:20;14.80;;;11.82;;
58665;SDS011;44436;52.872;6.520;2022-08-19T11:02:48;18.17;;;13.80;;
58665;SDS011;44436;52.872;6.520;2022-08-19T11:05:14;19.65;;;14.65;;
58665;SDS011;44436;52.872;6.520;2022-08-19T11:07:40;14.50;;;11.25;;
58665;SDS011;44436;52.872;6.520;2022-08-19T11:10:08;16.23;;;10.73;;
58665;SDS011;44436;52.872;6.520;2022-08-19T11:12:38;14.77;;;12.45;;
58665;SDS011;44436;52.872;6.520;2022-08-19T11:15:05;12.48;;;10.05;;
58665;SDS011;44436;52.872;6.520;2022-08-19T11:17:33;18.13;;;15.02;;
58665;SDS011;44436;52.872;6.520;2022-08-19T11:20:01;16.90;;;13.35;;
58665;SDS011;44436;52.872;6.520;2022-08-19T11:22:29;16.60;;;13.82;;
58665;SDS011;44436;52.872;6.520;2022-08-19T11:24:55;16.33;;;13.90;;
58665;SDS011;44436;52.872;6.520;2022-08-19T11:27:20;17.08;;;12.65;;
58665;SDS011;44436;52.872;6.520;2022-08-19T11:29:46;16.05;;;13.85;;
58665;SDS011;44436;52.872;6.520;2022-08-19T11:32:12;18.80;;;14.93;;
58665;SDS011;44436;52.872;6.520;2022-08-19T11:34:38;20.73;;;14.70;;
58665;SDS011;44436;52.872;6.520;2022-08-19T11:37:04;16.85;;;12.65;;
58665;SDS011;44436;52.872;6.520;2022-08-19T11:39:31;13.30;;;11.43;;
58665;SDS011;44436;52.872;6.520;2022-08-19T11:41:58;17.27;;;13.05;;
58665;SDS011;44436;52.872;6.520;2022-08-19T11:44:26;13.52;;;11.40;;
58665;SDS011;44436;52.872;6.520;2022-08-19T11:46:55;14.23;;;10.88;;
58665;SDS011;44436;52.872;6.520;2022-08-19T11:49:22;11.55;;;10.10;;
58665;SDS011;44436;52.872;6.520;2022-08-19T11:51:48;9.98;;;8.15;;
58665;SDS011;44436;52.872;6.520;2022-08-19T11:54:16;12.63;;;7.68;;
58665;SDS011;44436;52.872;6.520;2022-08-19T11:56:42;8.38;;;7.25;;
58665;SDS011;44436;52.872;6.520;2022-08-19T11:59:11;13.13;;;10.30;;
58665;SDS011;44436;52.872;6.520;2022-08-19T12:01:37;12.18;;;9.77;;
58665;SDS011;44436;52.872;6.520;2022-08-19T12:04:05;14.18;;;12.40;;
58665;SDS011;44436;52.872;6.520;2022-08-19T12:06:31;21.77;;;15.27;;
58665;SDS011;44436;52.872;6.520;2022-08-19T12:09:00;16.20;;;11.20;;
58665;SDS011;44436;52.872;6.520;2022-08-19T12:11:29;16.20;;;12.73;;
58665;SDS011;44436;52.872;6.520;2022-08-19T12:13:55;15.88;;;13.13;;
58665;SDS011;44436;52.872;6.520;2022-08-19T12:16:22;13.13;;;9.95;;
58665;SDS011;44436;52.872;6.520;2022-08-19T12:18:49;16.30;;;10.85;;
58665;SDS011;44436;52.872;6.520;2022-08-19T12:21:20;10.55;;;8.23;;
58665;SDS011;44436;52.872;6.520;2022-08-19T12:23:48;10.23;;;7.55;;
58665;SDS011;44436;52.872;6.520;2022-08-19T12:26:15;7.00;;;5.30;;
58665;SDS011;44436;52.872;6.520;2022-08-19T12:28:42;10.02;;;6.20;;
58665;SDS011;44436;52.872;6.520;2022-08-19T12:31:08;8.50;;;6.95;;
58665;SDS011;44436;52.872;6.520;2022-08-19T12:33:37;8.73;;;6.15;;
58665;SDS011;44436;52.872;6.520;2022-08-19T12:36:03;9.73;;;8.40;;
58665;SDS011;44436;52.872;6.520;2022-08-19T12:38:31;9.60;;;6.90;;
58665;SDS011;44436;52.872;6.520;2022-08-19T12:40:59;10.40;;;7.10;;
58665;SDS011;44436;52.872;6.520;2022-08-19T12:43:25;11.73;;;7.85;;
58665;SDS011;44436;52.872;6.520;2022-08-19T12:45:51;12.07;;;8.73;;
58665;SDS011;44436;52.872;6.520;2022-08-19T12:48:17;14.43;;;8.95;;
58665;SDS011;44436;52.872;6.520;2022-08-19T12:50:43;11.20;;;9.80;;
58665;SDS011;44436;52.872;6.520;2022-08-19T12:53:10;10.68;;;8.73;;
58665;SDS011;44436;52.872;6.520;2022-08-19T12:55:36;11.68;;;8.75;;
58665;SDS011;44436;52.872;6.520;2022-08-19T12:58:02;14.57;;;11.07;;
58665;SDS011;44436;52.872;6.520;2022-08-19T13:00:28;11.48;;;8.80;;
58665;SDS011;44436;52.872;6.520;2022-08-19T13:02:54;8.40;;;6.78;;
58665;SDS011;44436;52.872;6.520;2022-08-19T13:05:22;13.27;;;8.75;;
58665;SDS011;44436;52.872;6.520;2022-08-19T13:07:50;9.65;;;7.45;;
58665;SDS011;44436;52.872;6.520;2022-08-19T13:10:18;10.10;;;8.88;;
58665;SDS011;44436;52.872;6.520;2022-08-19T13:12:46;13.15;;;8.68;;
58665;SDS011;44436;52.872;6.520;2022-08-19T13:15:14;11.07;;;8.23;;
58665;SDS011;44436;52.872;6.520;2022-08-19T13:17:43;13.02;;;11.38;;
58665;SDS011;44436;52.872;6.520;2022-08-19T13:20:08;15.52;;;10.77;;
58665;SDS011;44436;52.872;6.520;2022-08-19T13:22:35;15.48;;;12.20;;
58665;SDS011;44436;52.872;6.520;2022-08-19T13:25:02;13.57;;;10.57;;
58665;SDS011;44436;52.872;6.520;2022-08-19T13:27:30;14.35;;;10.70;;
58665;SDS011;44436;52.872;6.520;2022-08-19T13:29:56;13.98;;;11.10;;
58665;SDS011;44436;52.872;6.520;2022-08-19T13:32:40;14.55;;;10.57;;
58665;SDS011;44436;52.872;6.520;2022-08-19T13:35:24;12.13;;;9.45;;
58665;SDS011;44436;52.872;6.520;2022-08-19T13:37:50;12.05;;;9.50;;
58665;SDS011;44436;52.872;6.520;2022-08-19T13:40:17;12.48;;;8.95;;
58665;SDS011;44436;52.872;6.520;2022-08-19T13:42:46;16.70;;;10.20;;
58665;SDS011;44436;52.872;6.520;2022-08-19T13:45:14;13.68;;;10.23;;
58665;SDS011;44436;52.872;6.520;2022-08-19T13:47:44;15.48;;;12.05;;
58665;SDS011;44436;52.872;6.520;2022-08-19T13:50:22;15.30;;;12.27;;
58665;SDS011;44436;52.872;6.520;2022-08-19T13:52:50;15.13;;;12.02;;
58665;SDS011;44436;52.872;6.520;2022-08-19T13:55:17;14.65;;;11.60;;
58665;SDS011;44436;52.872;6.520;2022-08-19T13:57:43;16.90;;;12.60;;
58665;SDS011;44436;52.872;6.520;2022-08-19T14:00:10;19.67;;;13.15;;
58665;SDS011;44436;52.872;6.520;2022-08-19T14:02:38;19.88;;;15.40;;
58665;SDS011;44436;52.872;6.520;2022-08-19T14:05:05;18.40;;;14.35;;
58665;SDS011;44436;52.872;6.520;2022-08-19T14:07:34;16.73;;;13.43;;
58665;SDS011;44436;52.872;6.520;2022-08-19T14:10:00;17.75;;;13.65;;
58665;SDS011;44436;52.872;6.520;2022-08-19T14:12:25;22.10;;;15.68;;
58665;SDS011;44436;52.872;6.520;2022-08-19T14:14:51;18.15;;;14.48;;
58665;SDS011;44436;52.872;6.520;2022-08-19T14:17:16;19.20;;;12.05;;
58665;SDS011;44436;52.872;6.520;2022-08-19T14:19:42;16.48;;;10.48;;
58665;SDS011;44436;52.872;6.520;2022-08-19T14:22:08;16.45;;;12.00;;
58665;SDS011;44436;52.872;6.520;2022-08-19T14:24:34;15.52;;;10.90;;
58665;SDS011;44436;52.872;6.520;2022-08-19T14:27:02;17.48;;;10.77;;
58665;SDS011;44436;52.872;6.520;2022-08-19T14:29:28;17.30;;;11.75;;
58665;SDS011;44436;52.872;6.520;2022-08-19T14:31:54;17.73;;;14.95;;
58665;SDS011;44436;52.872;6.520;2022-08-19T14:34:21;20.33;;;16.17;;
58665;SDS011;44436;52.872;6.520;2022-08-19T14:36:47;19.70;;;13.77;;
58665;SDS011;44436;52.872;6.520;2022-08-19T14:39:13;20.52;;;14.75;;
58665;SDS011;44436;52.872;6.520;2022-08-19T14:41:39;21.13;;;14.73;;
58665;SDS011;44436;52.872;6.520;2022-08-19T14:44:06;20.90;;;14.73;;